Time;durP1;ratioP1;P1;durP2;ratioP2;P2;SDS_P1;SDS_P2;PMS_P1;PMS_P2;Temp;Humidity;BMP_temperature;BMP_pressure;BME280_temperature;BME280_humidity;BME280_pressure;Samples;Min_cycle;Max_cycle;Signal;HPM_P1;HPM_P2
2022/08/29 00:02:24;;;;;;;1.50;1.50;;;24.60;64.40;;;;;;5008110;28;43642;-76
2022/08/29 00:04:52;;;;;;;1.47;1.47;;;24.70;63.80;;;;;;5007321;28;43506;-76
2022/08/29 00:07:22;;;;;;;1.50;1.40;;;24.80;63.40;;;;;;5007972;28;43422;-78
2022/08/29 00:09:50;;;;;;;1.60;1.60;;;24.90;63.00;;;;;;5008166;28;43445;-77
2022/08/29 00:12:18;;;;;;;1.50;1.50;;;25.00;62.90;;;;;;5007916;28;43699;-76
2022/08/29 00:14:46;;;;;;;1.27;1.27;;;25.00;63.10;;;;;;5008025;28;43383;-76
2022/08/29 00:17:14;;;;;;;1.60;1.60;;;24.90;63.00;;;;;;5006121;28;43297;-75
2022/08/29 00:19:42;;;;;;;1.53;1.40;;;24.80;63.40;;;;;;5008445;28;43415;-75
2022/08/29 00:22:10;;;;;;;1.40;1.40;;;24.80;63.50;;;;;;5007438;28;43567;-77
2022/08/29 00:24:40;;;;;;;1.33;1.33;;;24.80;63.60;;;;;;5004844;28;44336;-76
2022/08/29 00:27:08;;;;;;;1.43;1.43;;;24.80;63.50;;;;;;5007756;28;43449;-77
2022/08/29 00:29:36;;;;;;;1.30;1.30;;;24.70;63.90;;;;;;5006372;28;43836;-77
2022/08/29 00:32:04;;;;;;;1.40;1.40;;;24.70;64.10;;;;;;5005680;28;45662;-77
2022/08/29 00:34:32;;;;;;;1.40;1.40;;;24.70;64.10;;;;;;5007439;28;43433;-77
2022/08/29 00:37:00;;;;;;;1.60;1.20;;;24.70;63.80;;;;;;5022841;28;43435;-76
2022/08/29 00:39:30;;;;;;;1.20;1.20;;;24.60;64.20;;;;;;5006238;28;43571;-75
2022/08/29 00:42:01;;;;;;;1.40;1.40;;;24.60;64.20;;;;;;5021616;28;45095;-77
2022/08/29 00:44:29;;;;;;;1.43;1.43;;;24.70;63.70;;;;;;5007408;28;43798;-77
2022/08/29 00:47:08;;;;;;;1.40;1.40;;;24.80;63.20;;;;;;5005518;28;43383;-76
2022/08/29 00:49:39;;;;;;;1.30;1.20;;;24.90;62.80;;;;;;5008345;28;43905;-76
2022/08/29 00:52:11;;;;;;;1.30;1.30;;;25.00;62.60;;;;;;5007345;28;43706;-75
2022/08/29 00:54:39;;;;;;;1.23;1.23;;;25.00;62.80;;;;;;5005924;28;45955;-77
2022/08/29 00:57:09;;;;;;;1.40;1.40;;;24.90;62.80;;;;;;5007097;28;43333;-77
2022/08/29 00:59:38;;;;;;;1.20;1.20;;;24.90;63.20;;;;;;5006514;28;43619;-77
2022/08/29 01:02:06;;;;;;;1.60;1.60;;;24.80;63.20;;;;;;5005811;28;46393;-71
2022/08/29 01:04:34;;;;;;;1.13;1.13;;;24.80;63.40;;;;;;5007323;28;43345;-73
2022/08/29 01:07:02;;;;;;;1.30;1.30;;;24.70;63.20;;;;;;5005571;28;43832;-73
2022/08/29 01:09:30;;;;;;;1.20;1.20;;;24.70;63.90;;;;;;5007660;28;43448;-72
2022/08/29 01:12:15;;;;;;;1.20;1.20;;;24.70;63.80;;;;;;5005632;28;46174;-72
2022/08/29 01:14:47;;;;;;;1.30;1.30;;;24.70;63.80;;;;;;5005445;28;44704;-73
2022/08/29 01:17:17;;;;;;;1.20;1.20;;;24.60;64.30;;;;;;5007132;28;43388;-72
2022/08/29 01:19:48;;;;;;;1.30;1.30;;;24.60;64.10;;;;;;5022752;28;43365;-72
2022/08/29 01:22:28;;;;;;;1.70;1.70;;;24.60;64.00;;;;;;5005081;28;45601;-72
2022/08/29 01:24:58;;;;;;;1.40;1.40;;;24.70;63.50;;;;;;5000668;28;43452;-73
2022/08/29 01:27:28;;;;;;;1.20;1.20;;;24.80;62.90;;;;;;5006972;28;43323;-73
2022/08/29 01:29:56;;;;;;;1.30;1.30;;;24.90;62.80;;;;;;5005438;28;43546;-72
2022/08/29 01:32:24;;;;;;;1.10;1.10;;;24.90;62.90;;;;;;5005487;28;45792;-72
2022/08/29 01:34:52;;;;;;;1.40;1.40;;;24.90;62.90;;;;;;5021384;28;45029;-73
2022/08/29 01:37:21;;;;;;;1.50;1.50;;;24.80;63.30;;;;;;5021803;28;43424;-73
2022/08/29 01:39:49;;;;;;;1.30;1.30;;;24.70;63.30;;;;;;5006484;28;43348;-74
2022/08/29 01:42:20;;;;;;;1.40;1.40;;;24.80;63.60;;;;;;5006149;28;43584;-73
2022/08/29 01:44:49;;;;;;;1.40;1.40;;;24.70;63.40;;;;;;5006753;28;43436;-74
2022/08/29 01:47:19;;;;;;;1.30;1.30;;;24.70;63.70;;;;;;5007087;28;44079;-73
2022/08/29 01:49:47;;;;;;;1.33;1.33;;;24.60;63.80;;;;;;5007206;28;43842;-73
2022/08/29 01:52:15;;;;;;;1.17;1.17;;;24.60;63.90;;;;;;5006340;28;43937;-73
2022/08/29 01:54:44;;;;;;;1.40;1.40;;;24.60;63.80;;;;;;5006735;28;43612;-73
2022/08/29 01:57:12;;;;;;;1.23;1.23;;;24.60;63.70;;;;;;5006752;28;44010;-72
2022/08/29 01:59:41;;;;;;;1.20;1.20;;;24.60;64.10;;;;;;5007310;28;43383;-72
2022/08/29 02:02:11;;;;;;;1.50;1.50;;;24.60;63.70;;;;;;5006711;28;43773;-73
2022/08/29 02:04:39;;;;;;;1.40;1.40;;;24.70;63.20;;;;;;5005101;28;45078;-72
2022/08/29 02:07:07;;;;;;;1.33;1.33;;;24.80;62.70;;;;;;5006588;28;43427;-73
2022/08/29 02:09:39;;;;;;;1.10;1.10;;;25.00;62.40;;;;;;5006990;28;43468;-73
2022/08/29 02:12:12;;;;;;;1.40;1.40;;;25.00;62.50;;;;;;5006392;28;43881;-73
2022/08/29 02:14:42;;;;;;;1.40;1.40;;;25.00;63.40;;;;;;5006956;28;43392;-72
2022/08/29 02:17:10;;;;;;;1.20;1.20;;;24.90;62.90;;;;;;5006057;28;43411;-72
2022/08/29 02:19:38;;;;;;;1.30;1.30;;;24.80;62.80;;;;;;5007070;28;43961;-73
2022/08/29 02:22:07;;;;;;;1.20;1.20;;;24.80;63.00;;;;;;5004405;28;45719;-73
2022/08/29 02:24:35;;;;;;;1.20;1.20;;;24.70;63.10;;;;;;5005650;28;43459;-73
2022/08/29 02:27:03;;;;;;;1.30;1.30;;;24.70;63.30;;;;;;5004353;28;43665;-72
2022/08/29 02:29:31;;;;;;;1.17;1.17;;;24.70;63.60;;;;;;5005302;28;43485;-73
2022/08/29 02:32:07;;;;;;;1.40;1.40;;;24.70;63.50;;;;;;5006231;28;43724;-75
2022/08/29 02:34:35;;;;;;;1.30;1.30;;;24.70;63.60;;;;;;5005754;28;43449;-72
2022/08/29 02:37:04;;;;;;;1.20;1.20;;;24.60;63.30;;;;;;5006524;28;43534;-73
2022/08/29 02:39:33;;;;;;;1.30;1.30;;;24.50;64.70;;;;;;5006570;28;43356;-72
2022/08/29 02:42:01;;;;;;;1.20;1.20;;;24.50;63.60;;;;;;5005788;28;43670;-73
2022/08/29 02:44:29;;;;;;;1.30;1.30;;;24.60;63.20;;;;;;5006451;28;43338;-72
2022/08/29 02:46:57;;;;;;;1.10;1.10;;;24.80;62.70;;;;;;5005480;28;43499;-73
2022/08/29 02:49:26;;;;;;;1.40;1.30;;;24.90;62.40;;;;;;5006506;28;43452;-73
2022/08/29 02:51:55;;;;;;;1.53;1.30;;;25.00;62.70;;;;;;5006095;28;43915;-73
2022/08/29 02:54:23;;;;;;;1.50;1.50;;;24.90;62.70;;;;;;5009660;28;43349;-71
2022/08/29 02:56:51;;;;;;;1.63;1.27;;;24.80;62.70;;;;;;5024247;28;43827;-73
2022/08/29 02:59:19;;;;;;;1.30;1.30;;;24.70;62.90;;;;;;5010322;28;43454;-73
2022/08/29 03:01:47;;;;;;;1.37;1.23;;;24.70;63.10;;;;;;5007569;28;46045;-73
2022/08/29 03:04:15;;;;;;;1.40;1.40;;;24.70;63.30;;;;;;5007222;28;45088;-72
2022/08/29 03:06:45;;;;;;;1.20;1.20;;;24.60;63.20;;;;;;5009609;28;43435;-74
2022/08/29 03:09:13;;;;;;;1.10;1.10;;;24.60;63.70;;;;;;5008279;28;43625;-71
2022/08/29 03:11:41;;;;;;;1.80;1.40;;;24.60;63.80;;;;;;5009407;28;43766;-73
2022/08/29 03:14:09;;;;;;;1.10;1.10;;;24.60;63.70;;;;;;5008815;28;43354;-73
2022/08/29 03:16:37;;;;;;;1.20;1.20;;;24.50;63.30;;;;;;5009187;28;43289;-73
2022/08/29 03:19:05;;;;;;;1.27;1.27;;;24.50;64.00;;;;;;5007644;28;43476;-73
2022/08/29 03:21:33;;;;;;;1.10;1.10;;;24.50;63.60;;;;;;5007220;28;45866;-71
2022/08/29 03:24:03;;;;;;;1.37;1.37;;;24.60;63.20;;;;;;5008273;28;43384;-72
2022/08/29 03:26:31;;;;;;;1.40;1.30;;;24.70;62.60;;;;;;5009127;28;43920;-72
2022/08/29 03:28:59;;;;;;;1.30;1.30;;;24.90;62.20;;;;;;5009139;28;43404;-72
2022/08/29 03:31:27;;;;;;;1.27;1.27;;;25.00;62.00;;;;;;5009158;28;43961;-73
2022/08/29 03:33:55;;;;;;;1.17;1.17;;;24.90;62.30;;;;;;5008285;28;43407;-73
2022/08/29 03:36:25;;;;;;;1.27;1.27;;;24.90;62.40;;;;;;5007442;28;44076;-73
2022/08/29 03:38:52;;;;;;;1.20;1.20;;;24.80;62.60;;;;;;5002299;28;43372;-73
2022/08/29 03:41:22;;;;;;;1.30;1.30;;;24.80;62.80;;;;;;5002223;28;43929;-73
2022/08/29 03:43:50;;;;;;;1.10;1.10;;;24.70;62.90;;;;;;5008536;28;43377;-72
2022/08/29 03:46:18;;;;;;;1.30;1.30;;;24.70;62.90;;;;;;5000700;28;43465;-72
2022/08/29 03:48:47;;;;;;;1.03;1.03;;;24.60;63.30;;;;;;5002971;28;44124;-72
2022/08/29 03:51:15;;;;;;;1.30;1.30;;;24.60;63.40;;;;;;5002596;28;43760;-74
2022/08/29 03:53:42;;;;;;;1.33;1.33;;;24.60;63.50;;;;;;5008738;28;43359;-72
2022/08/29 03:56:12;;;;;;;1.20;1.20;;;24.50;63.20;;;;;;5008511;28;43788;-72
2022/08/29 03:58:47;;;;;;;1.67;1.40;;;24.50;63.70;;;;;;5009418;28;43724;-72
2022/08/29 04:01:21;;;;;;;1.40;1.30;;;24.50;63.50;;;;;;5006863;28;45957;-73
2022/08/29 04:03:49;;;;;;;1.20;1.20;;;24.60;63.00;;;;;;5006982;28;43433;-73
2022/08/29 04:06:18;;;;;;;3.97;1.27;;;24.70;62.40;;;;;;5008653;28;43340;-72
2022/08/29 04:08:46;;;;;;;1.70;1.60;;;24.80;62.30;;;;;;5024027;28;43436;-73
2022/08/29 04:11:14;;;;;;;1.30;1.30;;;24.90;62.50;;;;;;5006226;28;46049;-73
2022/08/29 04:13:42;;;;;;;2.07;1.57;;;24.80;62.50;;;;;;5008985;28;43340;-73
2022/08/29 04:16:12;;;;;;;4.10;1.50;;;24.80;62.40;;;;;;5005943;28;43471;-74
2022/08/29 04:18:40;;;;;;;2.00;1.80;;;24.70;61.90;;;;;;5007583;28;43610;-73
2022/08/29 04:21:08;;;;;;;1.40;1.40;;;24.70;62.40;;;;;;5008312;28;43741;-73
2022/08/29 04:23:37;;;;;;;3.20;1.80;;;24.70;62.70;;;;;;5008123;28;43491;-73
2022/08/29 04:26:05;;;;;;;7.00;2.90;;;24.60;62.70;;;;;;5022281;28;43396;-72
2022/08/29 04:28:53;;;;;;;10.70;3.10;;;24.50;63.00;;;;;;5008354;28;43432;-72
2022/08/29 04:31:23;;;;;;;8.73;3.33;;;24.50;62.80;;;;;;5008409;28;43777;-73
2022/08/29 04:33:51;;;;;;;7.47;3.80;;;24.50;62.90;;;;;;5007644;28;43411;-74
2022/08/29 04:36:19;;;;;;;7.87;3.63;;;24.50;62.80;;;;;;5008315;28;43312;-72
2022/08/29 04:38:47;;;;;;;7.80;4.17;;;24.50;64.10;;;;;;5007880;28;43972;-73
2022/08/29 04:41:15;;;;;;;13.37;4.43;;;24.50;63.20;;;;;;5005738;28;43980;-72
2022/08/29 04:43:45;;;;;;;9.03;4.40;;;24.50;62.80;;;;;;5007812;28;43877;-73
2022/08/29 04:46:14;;;;;;;11.53;4.57;;;24.70;62.50;;;;;;5008278;28;43431;-75
2022/08/29 04:48:52;;;;;;;11.47;5.20;;;24.80;61.90;;;;;;5008624;28;43433;-74
2022/08/29 04:51:20;;;;;;;12.97;5.33;;;24.90;62.80;;;;;;5008271;28;43896;-73
2022/08/29 04:53:49;;;;;;;9.13;5.17;;;24.80;62.00;;;;;;5007955;28;43545;-74
2022/08/29 04:56:17;;;;;;;9.33;5.07;;;24.80;62.20;;;;;;5008515;28;43813;-72
2022/08/29 04:58:46;;;;;;;14.80;5.10;;;24.70;62.40;;;;;;5008936;28;43348;-73
2022/08/29 05:01:15;;;;;;;11.97;5.60;;;24.70;62.50;;;;;;5007794;28;43916;-75
2022/08/29 05:03:43;;;;;;;10.00;5.50;;;24.70;62.60;;;;;;5008301;28;43899;-73
2022/08/29 05:06:13;;;;;;;10.67;4.97;;;24.60;62.50;;;;;;5007920;28;43400;-72
2022/08/29 05:08:42;;;;;;;9.83;5.13;;;24.50;62.90;;;;;;5008889;28;43325;-74
2022/08/29 05:11:11;;;;;;;13.83;5.50;;;24.50;63.00;;;;;;5006352;28;45752;-72
2022/08/29 05:13:39;;;;;;;10.50;5.33;;;24.50;63.00;;;;;;5008371;28;43510;-72
2022/08/29 05:16:10;;;;;;;11.40;5.30;;;24.50;62.80;;;;;;5008146;28;43375;-73
2022/08/29 05:18:39;;;;;;;11.30;5.87;;;24.40;63.30;;;;;;5008394;28;43531;-72
2022/08/29 05:21:07;;;;;;;9.13;4.87;;;24.50;63.30;;;;;;5007643;28;43936;-73
2022/08/29 05:23:36;;;;;;;11.20;5.60;;;24.50;62.80;;;;;;5007953;28;43396;-73
2022/08/29 05:26:05;;;;;;;10.63;5.53;;;24.70;62.20;;;;;;5007167;28;43622;-73
2022/08/29 05:28:34;;;;;;;11.67;5.63;;;24.80;61.80;;;;;;5006588;28;43623;-72
2022/08/29 05:31:01;;;;;;;9.27;5.33;;;24.80;61.60;;;;;;5007423;28;43758;-73
2022/08/29 05:33:29;;;;;;;9.03;5.53;;;24.70;61.60;;;;;;5007512;28;43416;-73
2022/08/29 05:35:58;;;;;;;11.10;5.93;;;24.70;61.90;;;;;;5007789;28;43877;-73
2022/08/29 05:38:26;;;;;;;7.67;4.90;;;24.60;61.50;;;;;;5023007;28;43436;-73
2022/08/29 05:40:55;;;;;;;11.57;5.80;;;24.60;61.40;;;;;;5007123;28;44064;-72
2022/08/29 05:43:23;;;;;;;6.97;4.70;;;24.60;61.60;;;;;;5007451;28;43296;-73
2022/08/29 05:45:51;;;;;;;9.60;5.30;;;24.50;61.90;;;;;;5007394;28;43402;-74
2022/08/29 05:48:20;;;;;;;9.20;5.20;;;24.50;61.60;;;;;;5005063;28;43563;-72
2022/08/29 05:50:48;;;;;;;8.23;4.83;;;24.40;61.40;;;;;;5007822;28;43769;-74
2022/08/29 05:53:17;;;;;;;7.10;4.33;;;24.40;61.70;;;;;;5007150;28;43455;-73
2022/08/29 05:55:45;;;;;;;6.77;4.70;;;24.40;61.90;;;;;;5007288;28;43454;-73
2022/08/29 05:58:15;;;;;;;9.93;5.20;;;24.40;61.60;;;;;;5007616;28;43430;-72
2022/08/29 06:00:44;;;;;;;9.17;5.03;;;24.40;61.10;;;;;;5007347;28;43689;-73
2022/08/29 06:03:13;;;;;;;8.33;5.03;;;24.50;60.80;;;;;;5006970;28;43809;-74
2022/08/29 06:05:41;;;;;;;6.00;4.00;;;24.70;60.40;;;;;;5007570;28;43342;-72
2022/08/29 06:08:09;;;;;;;9.53;5.20;;;24.80;60.10;;;;;;5007775;28;43478;-73
2022/08/29 06:10:39;;;;;;;6.67;5.10;;;24.80;60.00;;;;;;5022253;28;45780;-73
2022/08/29 06:13:07;;;;;;;7.60;4.90;;;24.80;60.10;;;;;;5007209;28;43444;-73
2022/08/29 06:15:37;;;;;;;7.60;4.63;;;24.70;60.20;;;;;;5007400;28;43363;-72
2022/08/29 06:18:05;;;;;;;5.47;4.60;;;24.70;60.20;;;;;;5007384;28;43751;-72
2022/08/29 06:20:33;;;;;;;7.20;5.27;;;24.70;60.40;;;;;;5006902;28;43901;-73
2022/08/29 06:23:01;;;;;;;7.23;4.30;;;24.60;60.70;;;;;;5006702;28;44165;-72
2022/08/29 06:25:29;;;;;;;7.00;4.70;;;24.50;60.80;;;;;;5004799;28;43390;-72
2022/08/29 06:28:06;;;;;;;7.73;4.43;;;24.50;60.60;;;;;;5004973;28;43488;-73
2022/08/29 06:30:35;;;;;;;5.20;4.17;;;24.50;60.50;;;;;;5007025;28;43606;-73
2022/08/29 06:33:05;;;;;;;5.60;4.40;;;24.50;61.10;;;;;;5006364;28;43447;-72
2022/08/29 06:35:33;;;;;;;5.03;4.40;;;24.40;61.00;;;;;;5006696;28;44050;-73
2022/08/29 06:38:01;;;;;;;4.43;4.03;;;24.40;61.10;;;;;;5006687;28;43443;-71
2022/08/29 06:40:29;;;;;;;5.97;4.47;;;24.40;60.60;;;;;;5005057;28;45743;-72
2022/08/29 06:42:58;;;;;;;6.43;4.20;;;24.50;60.10;;;;;;5006284;28;43710;-72
2022/08/29 06:45:26;;;;;;;5.90;4.17;;;24.70;59.70;;;;;;5006801;28;43743;-73
2022/08/29 06:47:54;;;;;;;6.07;4.37;;;24.80;59.60;;;;;;5021666;28;43634;-73
2022/08/29 06:50:23;;;;;;;6.77;4.93;;;24.80;59.40;;;;;;5021494;28;45836;-71
2022/08/29 06:52:51;;;;;;;5.50;4.40;;;24.80;59.70;;;;;;5006057;28;43504;-74
2022/08/29 06:55:22;;;;;;;5.00;4.20;;;24.70;59.90;;;;;;5006575;28;43339;-72
2022/08/29 06:57:51;;;;;;;6.30;4.00;;;24.60;59.80;;;;;;5015250;28;43558;-71
2022/08/29 07:00:20;;;;;;;4.60;4.10;;;24.60;60.00;;;;;;5004813;28;44169;-72
2022/08/29 07:02:49;;;;;;;4.27;3.97;;;24.50;60.30;;;;;;4998721;28;45196;-73
2022/08/29 07:05:19;;;;;;;5.70;3.50;;;24.50;60.60;;;;;;5006463;28;43771;-72
2022/08/29 07:07:49;;;;;;;6.83;4.33;;;24.40;60.30;;;;;;5006893;28;43471;-74
2022/08/29 07:10:17;;;;;;;5.20;4.50;;;24.40;60.20;;;;;;5006207;28;43927;-73
2022/08/29 07:12:50;;;;;;;4.00;3.67;;;24.40;60.50;;;;;;5006129;28;43377;-75
2022/08/29 07:15:18;;;;;;;3.73;3.43;;;24.40;60.80;;;;;;5006217;28;43427;-73
2022/08/29 07:17:46;;;;;;;4.67;4.03;;;24.40;60.90;;;;;;5005121;28;43456;-71
2022/08/29 07:20:14;;;;;;;4.50;3.97;;;24.40;60.60;;;;;;5004249;28;45862;-73
2022/08/29 07:22:44;;;;;;;4.70;4.10;;;24.40;60.10;;;;;;5006531;28;43503;-72
2022/08/29 07:25:13;;;;;;;4.37;3.90;;;24.50;59.70;;;;;;5006340;28;43749;-73
2022/08/29 07:27:41;;;;;;;5.27;3.80;;;24.70;59.60;;;;;;5005581;28;43720;-72
2022/08/29 07:30:11;;;;;;;3.90;3.60;;;24.70;59.50;;;;;;5006115;28;43792;-73
2022/08/29 07:32:43;;;;;;;5.10;3.80;;;24.60;59.80;;;;;;5006567;28;44004;-73
2022/08/29 07:35:12;;;;;;;3.97;3.57;;;24.50;59.90;;;;;;5006198;28;43384;-72
2022/08/29 07:37:40;;;;;;;4.23;3.50;;;24.50;59.80;;;;;;5005016;28;44079;-73
2022/08/29 07:40:10;;;;;;;4.03;3.57;;;24.50;60.00;;;;;;5008143;28;44048;-73
2022/08/29 07:42:39;;;;;;;4.50;4.07;;;24.40;60.20;;;;;;5009775;28;43365;-73
2022/08/29 07:45:08;;;;;;;3.83;3.53;;;24.40;60.30;;;;;;5009224;28;43579;-73
2022/08/29 07:47:36;;;;;;;4.57;3.80;;;24.40;60.20;;;;;;5008473;28;43626;-73
2022/08/29 07:50:06;;;;;;;3.87;3.50;;;24.40;60.20;;;;;;5009159;28;43624;-72
2022/08/29 07:52:34;;;;;;;3.70;3.40;;;24.40;60.60;;;;;;5009224;28;43341;-73
2022/08/29 07:55:02;;;;;;;4.63;3.57;;;24.40;60.70;;;;;;5009343;28;43807;-74
2022/08/29 07:57:30;;;;;;;4.53;4.13;;;24.30;60.50;;;;;;5009894;28;43475;-72
2022/08/29 08:00:00;;;;;;;3.80;3.47;;;24.30;60.10;;;;;;5007575;28;44081;-72
2022/08/29 08:02:28;;;;;;;4.23;3.87;;;24.40;59.90;;;;;;5009308;28;43411;-71
2022/08/29 08:04:58;;;;;;;3.60;3.30;;;24.60;59.60;;;;;;5008854;28;43433;-72
2022/08/29 08:07:28;;;;;;;4.63;3.50;;;24.70;59.60;;;;;;5009618;28;43595;-72
2022/08/29 08:09:56;;;;;;;3.80;3.50;;;24.70;59.60;;;;;;5008632;28;43625;-72
2022/08/29 08:12:25;;;;;;;3.77;3.40;;;24.60;59.80;;;;;;5007700;28;44630;-72
2022/08/29 08:14:54;;;;;;;4.13;3.67;;;24.50;59.90;;;;;;5008614;28;43360;-72
2022/08/29 08:17:23;;;;;;;3.70;3.40;;;24.50;59.90;;;;;;5009089;28;43378;-71
2022/08/29 08:19:51;;;;;;;3.40;3.10;;;24.50;60.00;;;;;;5006894;28;45551;-72
2022/08/29 08:22:19;;;;;;;3.90;3.53;;;24.50;60.30;;;;;;5008733;28;43415;-74
2022/08/29 08:24:47;;;;;;;3.60;3.30;;;24.40;60.30;;;;;;5008611;28;43464;-73
2022/08/29 08:27:15;;;;;;;3.43;3.13;;;24.40;60.20;;;;;;5009203;28;43368;-73
2022/08/29 08:29:44;;;;;;;3.27;3.07;;;24.40;60.30;;;;;;5008862;28;43608;-74
2022/08/29 08:32:12;;;;;;;3.40;3.20;;;24.40;60.60;;;;;;5007137;28;44837;-73
2022/08/29 08:34:41;;;;;;;3.40;3.20;;;24.30;60.60;;;;;;5007451;28;43552;-71
2022/08/29 08:37:10;;;;;;;4.00;3.60;;;24.30;60.90;;;;;;5009296;28;43400;-73
2022/08/29 08:39:42;;;;;;;3.37;3.17;;;24.30;60.60;;;;;;5009134;28;43623;-71
2022/08/29 08:42:17;;;;;;;3.53;3.23;;;24.40;60.20;;;;;;5008769;28;43332;-72
2022/08/29 08:45:07;;;;;;;3.40;3.20;;;24.60;59.80;;;;;;5003294;28;43403;-74
2022/08/29 08:47:38;;;;;;;3.20;3.00;;;24.70;59.50;;;;;;5007143;28;43499;-73
2022/08/29 08:50:12;;;;;;;3.57;3.27;;;24.70;59.50;;;;;;5005812;28;45670;-71
2022/08/29 08:52:42;;;;;;;3.23;3.03;;;24.70;59.60;;;;;;5022684;28;44729;-72
2022/08/29 08:55:27;;;;;;;2.80;2.67;;;24.60;59.70;;;;;;5006693;28;43434;-73
2022/08/29 08:58:00;;;;;;;3.23;3.03;;;24.50;59.80;;;;;;5002666;28;43441;-72
2022/08/29 09:00:30;;;;;;;3.30;3.00;;;24.50;60.00;;;;;;5008274;28;44007;-73
2022/08/29 09:03:02;;;;;;;3.07;2.87;;;24.50;60.20;;;;;;5007622;28;43380;-74
2022/08/29 09:05:39;;;;;;;3.20;2.90;;;24.40;60.40;;;;;;5008424;28;43431;-73
2022/08/29 09:08:13;;;;;;;3.30;3.10;;;24.40;60.50;;;;;;5008235;28;43582;-72
2022/08/29 09:10:44;;;;;;;3.63;3.43;;;24.40;60.50;;;;;;5008251;28;43765;-72
2022/08/29 09:13:18;;;;;;;3.07;2.87;;;24.30;60.60;;;;;;5022828;28;44365;-73
2022/08/29 09:15:47;;;;;;;3.73;3.43;;;24.30;60.90;;;;;;5006542;28;43720;-73
2022/08/29 09:18:18;;;;;;;2.90;2.70;;;24.30;60.90;;;;;;5007030;28;43360;-73
2022/08/29 09:20:53;;;;;;;2.93;2.73;;;24.30;60.90;;;;;;5016062;28;45387;-73
2022/08/29 09:23:24;;;;;;;3.27;2.97;;;24.30;60.90;;;;;;5008142;28;43642;-73
2022/08/29 09:25:52;;;;;;;2.70;2.60;;;24.30;61.10;;;;;;5007458;28;43311;-72
2022/08/29 09:28:20;;;;;;;3.03;2.90;;;24.30;61.00;;;;;;5007979;28;43519;-72
2022/08/29 09:31:22;;;;;;;3.20;3.00;;;24.30;60.70;;;;;;5007901;28;43933;-72
2022/08/29 09:33:52;;;;;;;3.37;3.07;;;24.40;60.40;;;;;;5007416;28;44170;-73
2022/08/29 09:36:41;;;;;;;2.80;2.60;;;24.60;60.00;;;;;;5007995;28;43443;-72
2022/08/29 09:39:11;;;;;;;2.83;2.67;;;24.70;59.70;;;;;;5008046;28;43596;-72
2022/08/29 09:41:39;;;;;;;3.03;2.83;;;24.70;59.80;;;;;;5008134;28;43604;-72
2022/08/29 09:44:08;;;;;;;2.73;2.60;;;24.60;59.80;;;;;;5007402;28;43416;-73
2022/08/29 09:46:36;;;;;;;2.90;2.70;;;24.50;59.80;;;;;;5007589;28;43543;-72
2022/08/29 09:49:15;;;;;;;2.73;2.60;;;24.50;60.10;;;;;;5007356;28;43981;-72
2022/08/29 09:51:44;;;;;;;3.10;2.90;;;24.50;60.20;;;;;;5007722;28;43752;-71
2022/08/29 09:54:16;;;;;;;2.07;2.07;;;24.50;60.30;;;;;;5022443;28;44617;-73
2022/08/29 09:56:51;;;;;;;2.83;2.63;;;24.40;60.60;;;;;;5022396;28;43383;-72
2022/08/29 09:59:29;;;;;;;2.90;2.70;;;24.40;60.70;;;;;;5007884;28;43428;-73
2022/08/29 10:02:24;;;;;;;2.30;2.20;;;24.40;60.70;;;;;;4999826;28;43900;-73
2022/08/29 10:04:53;;;;;;;2.90;2.60;;;24.40;60.70;;;;;;4992405;28;43458;-73
2022/08/29 10:07:24;;;;;;;3.03;2.83;;;24.30;61.10;;;;;;5007568;28;43872;-73
2022/08/29 10:09:54;;;;;;;2.50;2.40;;;24.30;60.90;;;;;;5007084;28;43480;-74
2022/08/29 10:12:27;;;;;;;2.83;2.63;;;24.40;60.60;;;;;;5007068;28;43794;-73
2022/08/29 10:14:59;;;;;;;2.70;2.50;;;24.50;60.20;;;;;;5006584;28;43864;-72
2022/08/29 10:20:23;;;;;;;3.17;2.80;;;24.60;60.30;;;;;;5007561;28;43462;-72
2022/08/29 10:22:56;;;;;;;2.50;2.40;;;24.50;60.20;;;;;;5006556;28;43900;-71
2022/08/29 10:25:29;;;;;;;2.37;2.27;;;24.50;60.70;;;;;;5006530;28;43487;-72
2022/08/29 10:27:59;;;;;;;2.50;2.30;;;24.40;60.60;;;;;;5022427;28;43452;-72
2022/08/29 10:30:29;;;;;;;2.47;2.37;;;24.40;60.60;;;;;;5007557;28;43446;-71
2022/08/29 10:33:15;;;;;;;2.20;2.20;;;24.40;60.70;;;;;;5006638;28;43959;-72
2022/08/29 10:35:48;;;;;;;2.70;2.60;;;24.40;61.00;;;;;;5007094;28;43408;-74
2022/08/29 10:38:35;;;;;;;3.20;2.90;;;24.30;60.90;;;;;;5021949;28;43402;-74
2022/08/29 10:41:06;;;;;;;2.50;2.40;;;24.40;60.70;;;;;;5006895;28;43418;-72
2022/08/29 10:43:37;;;;;;;2.67;2.47;;;24.40;60.60;;;;;;5006766;28;43773;-72
2022/08/29 10:46:20;;;;;;;2.90;2.80;;;24.40;60.50;;;;;;5006321;28;43461;-73
2022/08/29 10:48:51;;;;;;;2.73;2.63;;;24.40;60.80;;;;;;5006586;28;43387;-74
2022/08/29 10:51:22;;;;;;;2.30;2.20;;;24.40;61.00;;;;;;5001323;28;43378;-72
2022/08/29 10:53:54;;;;;;;2.60;2.50;;;24.40;60.90;;;;;;5021374;28;46295;-74
2022/08/29 10:56:24;;;;;;;2.40;2.30;;;24.40;60.80;;;;;;5006746;28;43995;-73
2022/08/29 10:58:59;;;;;;;2.50;2.40;;;24.40;61.00;;;;;;5004814;28;43333;-75
2022/08/29 11:01:30;;;;;;;2.30;2.20;;;24.30;61.20;;;;;;5022305;28;43612;-73
2022/08/29 11:04:05;;;;;;;2.50;2.27;;;24.40;61.00;;;;;;5006107;28;43858;-72
2022/08/29 11:06:35;;;;;;;2.30;2.20;;;24.40;60.80;;;;;;5004858;28;45046;-71
2022/08/29 11:09:08;;;;;;;2.73;2.53;;;24.50;61.60;;;;;;5004791;28;43639;-73
2022/08/29 11:11:36;;;;;;;2.53;2.33;;;24.40;60.70;;;;;;5006989;28;43465;-72
2022/08/29 11:14:06;;;;;;;2.27;2.17;;;24.40;61.00;;;;;;5023655;28;45800;-71
2022/08/29 11:16:36;;;;;;;1.93;1.93;;;24.40;61.10;;;;;;5010184;28;43358;-73
2022/08/29 11:19:08;;;;;;;2.50;2.40;;;24.40;61.10;;;;;;5009514;28;43575;-74
2022/08/29 11:21:38;;;;;;;2.50;2.40;;;24.40;61.00;;;;;;5010182;28;43984;-72
2022/08/29 11:24:08;;;;;;;2.13;2.03;;;24.40;61.00;;;;;;5002216;28;43945;-72
2022/08/29 11:26:43;;;;;;;2.40;2.30;;;24.30;61.50;;;;;;5002113;28;44795;-73
2022/08/29 11:29:16;;;;;;;2.57;2.37;;;24.40;61.30;;;;;;5009764;28;43411;-72
2022/08/29 11:31:49;;;;;;;2.50;2.40;;;24.50;61.10;;;;;;5010388;28;43975;-75
2022/08/29 11:34:23;;;;;;;2.47;2.37;;;24.50;60.60;;;;;;5007910;28;45699;-73
2022/08/29 11:37:01;;;;;;;2.10;2.10;;;24.60;60.60;;;;;;5009374;28;43508;-75
2022/08/29 11:39:45;;;;;;;2.53;2.43;;;24.60;60.60;;;;;;5007928;28;43401;-73
2022/08/29 11:42:15;;;;;;;2.40;2.30;;;24.50;60.60;;;;;;5003348;28;43469;-72
2022/08/29 11:45:04;;;;;;;2.60;2.50;;;24.50;61.10;;;;;;5007469;28;45860;-72
2022/08/29 11:47:40;;;;;;;2.20;2.10;;;24.40;61.00;;;;;;5009191;28;43320;-72
2022/08/29 11:50:21;;;;;;;2.00;2.00;;;24.40;61.00;;;;;;5009064;28;43424;-71
2022/08/29 11:52:50;;;;;;;2.10;2.00;;;24.40;61.10;;;;;;5009732;28;43339;-74
2022/08/29 11:55:31;;;;;;;2.00;2.00;;;24.30;61.60;;;;;;5009232;28;44006;-73
2022/08/29 11:58:07;;;;;;;2.00;2.00;;;24.30;61.60;;;;;;5009259;28;43395;-73
2022/08/29 12:00:50;;;;;;;2.00;2.00;;;24.30;61.40;;;;;;5009359;28;43601;-73
2022/08/29 12:03:52;;;;;;;2.10;2.00;;;24.30;62.10;;;;;;5009746;28;43417;-72
2022/08/29 12:06:33;;;;;;;2.40;2.30;;;24.30;62.00;;;;;;5009049;28;43945;-73
2022/08/29 12:09:07;;;;;;;2.00;2.00;;;24.30;62.50;;;;;;5008629;28;43644;-72
2022/08/29 12:12:13;;;;;;;2.07;2.00;;;24.30;61.60;;;;;;5007640;28;43484;-72
2022/08/29 12:14:42;;;;;;;1.90;1.90;;;24.30;61.70;;;;;;4977882;28;43414;-72
2022/08/29 12:17:11;;;;;;;2.57;2.40;;;24.20;62.10;;;;;;5009062;28;43607;-73
2022/08/29 12:19:50;;;;;;;2.30;2.20;;;24.30;61.90;;;;;;5008826;28;43707;-73
2022/08/29 12:22:47;;;;;;;2.20;2.10;;;24.40;61.60;;;;;;5009028;28;43718;-72
2022/08/29 12:25:30;;;;;;;2.40;2.30;;;24.50;61.10;;;;;;5007548;28;43500;-72
2022/08/29 12:28:07;;;;;;;2.40;2.30;;;24.60;61.10;;;;;;5008534;28;43925;-73
2022/08/29 12:30:39;;;;;;;2.00;1.90;;;24.60;61.00;;;;;;5008079;28;44012;-72
2022/08/29 12:33:16;;;;;;;2.10;2.00;;;24.60;61.00;;;;;;5007083;28;43714;-73
2022/08/29 12:36:19;;;;;;;2.27;2.20;;;24.50;61.40;;;;;;5009102;28;43399;-74
2022/08/29 12:38:53;;;;;;;1.90;1.87;;;24.50;61.10;;;;;;4994040;28;46054;-74
2022/08/29 12:41:31;;;;;;;2.60;2.50;;;24.40;61.10;;;;;;5008631;28;43433;-72
2022/08/29 12:44:01;;;;;;;2.20;2.10;;;24.40;61.60;;;;;;5008101;28;43942;-72
2022/08/29 12:46:33;;;;;;;2.20;2.10;;;24.40;62.00;;;;;;5009003;28;43692;-73
2022/08/29 12:49:05;;;;;;;2.20;2.20;;;24.40;61.80;;;;;;5008062;28;43870;-73
2022/08/29 12:51:37;;;;;;;2.30;2.30;;;24.50;61.60;;;;;;5008247;28;43371;-71
2022/08/29 12:54:06;;;;;;;1.90;1.90;;;24.50;61.40;;;;;;5008189;28;43723;-73
2022/08/29 12:56:34;;;;;;;2.07;2.07;;;24.50;61.30;;;;;;5008540;28;43463;-72
2022/08/29 12:59:04;;;;;;;2.40;2.30;;;24.50;61.70;;;;;;5008295;28;43970;-73
2022/08/29 13:01:33;;;;;;;2.10;2.10;;;24.40;61.90;;;;;;5008347;28;43394;-72
2022/08/29 13:04:03;;;;;;;2.23;2.13;;;24.40;61.60;;;;;;5008167;28;43438;-73
2022/08/29 13:06:32;;;;;;;2.07;2.07;;;24.40;61.50;;;;;;5008729;28;43582;-74
2022/08/29 13:09:00;;;;;;;2.10;2.00;;;24.40;62.50;;;;;;5007746;28;44016;-72